createdAt,value
2022-08-17T00:01:52.817Z,48.68
2022-08-17T00:04:25.660Z,48.56
2022-08-17T00:06:55.547Z,48.96
2022-08-17T00:09:25.398Z,48.67
2022-08-17T00:12:34.699Z,48.85
2022-08-17T00:14:46.163Z,49.07
2022-08-17T00:17:16.034Z,48.98
2022-08-17T00:19:47.394Z,49.05
2022-08-17T00:22:33.564Z,49.09
2022-08-17T00:25:09.560Z,49.20
2022-08-17T00:27:39.455Z,49.39
2022-08-17T00:30:13.040Z,49.42
2022-08-17T00:33:14.210Z,49.52
2022-08-17T00:35:37.356Z,49.56
2022-08-17T00:38:09.909Z,49.69
2022-08-17T00:40:44.913Z,49.74
2022-08-17T00:43:18.415Z,49.59
2022-08-17T00:45:48.706Z,49.67
2022-08-17T00:48:27.188Z,49.81
2022-08-17T00:51:06.682Z,50.03
2022-08-17T00:53:40.628Z,49.97
2022-08-17T00:56:16.206Z,50.04
2022-08-17T00:58:46.399Z,50.06
2022-08-17T01:01:21.607Z,50.09
2022-08-17T01:03:54.230Z,50.46
2022-08-17T01:06:31.213Z,50.68
2022-08-17T01:09:03.520Z,50.23
2022-08-17T01:11:36.266Z,50.40
2022-08-17T01:14:08.953Z,50.78
2022-08-17T01:16:39.630Z,50.73
2022-08-17T01:19:16.736Z,50.78
2022-08-17T01:21:56.198Z,50.94
2022-08-17T01:24:27.949Z,51.22
2022-08-17T01:26:58.141Z,51.25
2022-08-17T01:29:31.187Z,51.38
2022-08-17T01:32:04.811Z,51.08
2022-08-17T01:34:42.477Z,51.46
2022-08-17T01:37:13.889Z,51.61
2022-08-17T01:39:48.811Z,51.68
2022-08-17T01:42:31.820Z,52.24
2022-08-17T01:45:06.757Z,51.86
2022-08-17T01:47:37.390Z,51.96
2022-08-17T01:50:10.160Z,52.08
2022-08-17T01:52:40.742Z,52.33
2022-08-17T01:55:16.177Z,52.19
2022-08-17T01:57:46.594Z,52.41
2022-08-17T02:00:18.340Z,52.09
2022-08-17T02:02:48.701Z,52.07
2022-08-17T02:05:19.525Z,52.30
2022-08-17T02:08:00.258Z,52.47
2022-08-17T02:10:34.061Z,52.53
2022-08-17T02:13:05.951Z,52.61
2022-08-17T02:15:36.377Z,52.69
2022-08-17T02:18:07.347Z,52.23
2022-08-17T02:20:41.568Z,51.97
2022-08-17T02:23:14.495Z,52.32
2022-08-17T02:25:48.824Z,52.60
2022-08-17T02:28:19.163Z,52.74
2022-08-17T02:30:59.082Z,52.75
2022-08-17T02:33:37.292Z,52.74
2022-08-17T02:36:14.608Z,52.71
2022-08-17T02:38:45.734Z,52.50
2022-08-17T02:41:17.053Z,52.76
2022-08-17T02:43:46.984Z,52.70
2022-08-17T02:46:16.920Z,52.71
2022-08-17T02:48:47.083Z,52.98
2022-08-17T02:51:18.107Z,52.96
2022-08-17T02:53:48.028Z,53.05
2022-08-17T02:56:19.306Z,52.88
2022-08-17T02:58:49.309Z,53.38
2022-08-17T03:01:19.305Z,53.50
2022-08-17T03:03:49.360Z,53.45
2022-08-17T03:06:19.356Z,53.66
2022-08-17T03:08:49.318Z,53.66
2022-08-17T03:11:20.536Z,53.74
2022-08-17T03:13:51.469Z,53.84
2022-08-17T03:16:21.700Z,54.03
2022-08-17T03:18:51.793Z,53.79
2022-08-17T03:21:21.911Z,54.19
2022-08-17T03:23:54.577Z,54.00
2022-08-17T03:26:26.006Z,53.99
2022-08-17T03:28:59.914Z,53.63
2022-08-17T03:31:29.922Z,53.48
2022-08-17T03:34:02.196Z,53.71
2022-08-17T03:36:32.131Z,53.85
2022-08-17T03:39:06.590Z,54.01
2022-08-17T03:41:39.175Z,53.72
2022-08-17T03:44:09.149Z,53.84
2022-08-17T03:46:56.123Z,53.67
2022-08-17T03:49:45.769Z,53.84
2022-08-17T03:52:33.457Z,53.94
2022-08-17T03:55:35.962Z,53.95
2022-08-17T03:58:07.456Z,53.65
2022-08-17T04:00:39.832Z,53.54
2022-08-17T04:03:09.985Z,53.45
2022-08-17T04:05:40.238Z,53.59
2022-08-17T04:08:11.020Z,53.68
2022-08-17T04:10:44.766Z,53.96
2022-08-17T04:13:24.841Z,53.93
2022-08-17T04:15:56.215Z,54.23
2022-08-17T04:18:26.680Z,54.01
2022-08-17T04:20:57.003Z,53.76
2022-08-17T04:23:33.032Z,53.75
2022-08-17T04:26:04.037Z,53.73
2022-08-17T04:28:35.434Z,53.88
2022-08-17T04:31:05.787Z,53.77
2022-08-17T04:33:37.812Z,53.70
2022-08-17T04:36:09.938Z,54.02
2022-08-17T04:38:41.938Z,53.76
2022-08-17T04:41:30.932Z,53.92
2022-08-17T04:44:04.008Z,53.89
2022-08-17T04:46:36.464Z,53.89
2022-08-17T04:49:08.820Z,54.01
2022-08-17T04:51:45.473Z,53.99
2022-08-17T04:54:24.917Z,54.35
2022-08-17T04:56:54.867Z,54.28
2022-08-17T04:59:26.141Z,54.34
2022-08-17T05:01:56.050Z,54.09
2022-08-17T05:04:33.923Z,54.02
2022-08-17T05:07:05.163Z,53.27
2022-08-17T05:09:35.850Z,53.61
2022-08-17T05:12:06.902Z,53.45
2022-08-17T05:14:39.956Z,53.28
2022-08-17T05:17:11.273Z,53.41
2022-08-17T05:19:41.721Z,53.39
2022-08-17T05:22:11.718Z,52.91
2022-08-17T05:24:43.722Z,52.77
2022-08-17T05:27:25.453Z,52.05
2022-08-17T05:30:01.091Z,51.53
2022-08-17T05:32:38.805Z,50.73
2022-08-17T05:35:17.889Z,50.65
2022-08-17T05:37:47.855Z,50.78
2022-08-17T05:40:19.013Z,51.20
2022-08-17T05:42:49.623Z,51.51
2022-08-17T05:45:39.886Z,50.80
2022-08-17T05:48:13.317Z,50.77
2022-08-17T05:50:50.700Z,50.91
2022-08-17T05:53:28.473Z,50.46
2022-08-17T05:56:11.626Z,50.79
2022-08-17T05:59:09.803Z,50.58
2022-08-17T06:01:53.358Z,50.74
2022-08-17T06:04:32.262Z,51.57
2022-08-17T06:07:13.211Z,51.08
2022-08-17T06:09:50.669Z,50.38
2022-08-17T06:12:35.656Z,50.26
2022-08-17T06:15:26.233Z,50.14
2022-08-17T06:18:01.140Z,50.29
2022-08-17T06:20:47.464Z,50.10
2022-08-17T06:23:27.615Z,50.07
2022-08-17T06:26:03.789Z,50.02
2022-08-17T06:28:39.507Z,49.72
2022-08-17T06:31:16.803Z,49.69
2022-08-17T06:33:48.209Z,49.69
2022-08-17T06:36:33.689Z,49.48
2022-08-17T06:39:19.441Z,49.29
2022-08-17T06:42:02.324Z,49.72
2022-08-17T06:44:47.609Z,49.51
2022-08-17T06:47:27.940Z,49.90
2022-08-17T06:50:14.456Z,49.61
2022-08-17T06:52:52.511Z,49.35
2022-08-17T06:55:27.519Z,49.16
2022-08-17T06:58:02.138Z,49.31
2022-08-17T07:00:42.949Z,48.82
2022-08-17T07:03:29.492Z,48.38
2022-08-17T07:06:08.113Z,48.68
2022-08-17T07:08:48.737Z,47.25
2022-08-17T07:11:21.824Z,47.42
2022-08-17T07:14:02.492Z,46.25
2022-08-17T07:16:39.167Z,45.77
2022-08-17T07:19:11.201Z,45.17
2022-08-17T07:21:55.109Z,45.04
2022-08-17T07:24:37.330Z,45.29
2022-08-17T07:27:11.732Z,45.14
2022-08-17T07:29:46.434Z,44.71
2022-08-17T07:32:20.116Z,44.49
2022-08-17T07:35:13.053Z,44.98
2022-08-17T07:37:53.452Z,44.63
2022-08-17T07:40:28.167Z,44.13
2022-08-17T07:43:23.981Z,43.97
2022-08-17T07:46:44.966Z,42.03
2022-08-17T07:49:21.201Z,40.70
2022-08-17T07:52:48.025Z,40.08
2022-08-17T07:54:56.123Z,40.93
2022-08-17T07:57:37.056Z,40.73
2022-08-17T08:00:32.466Z,41.29
2022-08-17T08:03:16.673Z,39.92
2022-08-17T08:05:53.571Z,39.91
2022-08-17T08:08:31.093Z,39.49
2022-08-17T08:11:07.345Z,39.30
2022-08-17T08:13:45.105Z,38.88
2022-08-17T08:16:22.688Z,39.03
2022-08-17T08:18:57.555Z,37.76
2022-08-17T08:21:42.284Z,38.23
2022-08-17T08:24:36.541Z,38.51
2022-08-17T08:27:15.991Z,38.11
2022-08-17T08:29:53.991Z,38.20
2022-08-17T08:32:38.281Z,36.94
2022-08-17T08:35:13.101Z,37.31
2022-08-17T08:37:53.431Z,36.76
2022-08-17T08:40:39.992Z,37.14
2022-08-17T08:43:23.267Z,37.57
2022-08-17T08:46:02.726Z,37.89
2022-08-17T08:48:58.694Z,36.98
2022-08-17T08:51:43.291Z,37.14
2022-08-17T08:54:28.567Z,38.22
2022-08-17T08:57:30.901Z,36.45
2022-08-17T09:00:14.741Z,35.92
2022-08-17T09:03:13.137Z,35.41
2022-08-17T09:06:06.886Z,36.22
2022-08-17T09:09:03.423Z,36.04
2022-08-17T09:12:02.639Z,38.01
2022-08-17T09:14:47.142Z,35.91
2022-08-17T09:17:23.098Z,33.64
2022-08-17T09:20:01.133Z,33.80
2022-08-17T09:22:37.469Z,33.67
2022-08-17T09:25:12.051Z,32.89
2022-08-17T09:27:52.117Z,33.50
2022-08-17T09:30:23.728Z,33.58
2022-08-17T09:32:59.886Z,33.79
2022-08-17T09:35:39.509Z,34.96
2022-08-17T09:38:22.443Z,33.37
2022-08-17T09:40:58.574Z,32.72
2022-08-17T09:43:39.978Z,32.72
2022-08-17T09:46:15.675Z,33.52
2022-08-17T09:48:51.740Z,35.41
2022-08-17T09:51:30.379Z,33.74
2022-08-17T09:54:34.932Z,31.96
2022-08-17T09:57:28.032Z,33.25
2022-08-17T10:00:07.593Z,32.28
2022-08-17T10:03:09.633Z,31.46
2022-08-17T10:05:47.707Z,31.32
2022-08-17T10:08:28.691Z,32.16
2022-08-17T10:11:12.780Z,32.58
2022-08-17T10:13:53.367Z,30.29
2022-08-17T10:16:32.028Z,30.71
2022-08-17T10:19:11.552Z,31.75
2022-08-17T10:22:32.509Z,31.76
2022-08-17T10:25:22.332Z,31.52
2022-08-17T10:27:58.814Z,29.71
2022-08-17T10:30:34.585Z,30.39
2022-08-17T10:33:07.967Z,27.83
2022-08-17T10:35:43.485Z,27.75
2022-08-17T10:38:31.154Z,27.53
2022-08-17T10:41:13.461Z,28.70
2022-08-17T10:43:55.849Z,29.60
2022-08-17T10:47:02.698Z,28.61
2022-08-17T10:49:35.121Z,28.14
2022-08-17T10:52:24.904Z,29.31
2022-08-17T10:55:15.085Z,27.88
2022-08-17T10:57:46.387Z,30.15
2022-08-17T11:00:57.978Z,29.26
2022-08-17T11:03:29.701Z,30.44
2022-08-17T11:06:12.764Z,31.36
2022-08-17T11:09:21.089Z,28.19
2022-08-17T11:12:11.477Z,27.21
2022-08-17T11:14:57.988Z,27.18
2022-08-17T11:18:01.499Z,26.65
2022-08-17T11:21:10.557Z,27.85
2022-08-17T11:24:07.300Z,26.62
2022-08-17T11:26:42.240Z,27.16
2022-08-17T11:29:20.786Z,27.58
2022-08-17T11:32:06.089Z,28.01
2022-08-17T11:34:36.741Z,26.35
2022-08-17T11:37:34.097Z,26.87
2022-08-17T11:40:29.485Z,26.02
2022-08-17T11:43:29.933Z,26.24
2022-08-17T11:46:18.881Z,27.33
2022-08-17T11:49:17.900Z,27.43
2022-08-17T11:52:35.959Z,26.55
2022-08-17T11:55:33.953Z,26.92
2022-08-17T11:58:01.626Z,26.57
2022-08-17T12:00:52.509Z,26.12
2022-08-17T12:03:53.721Z,25.40
2022-08-17T12:06:49.421Z,26.27
2022-08-17T12:09:20.870Z,24.40
2022-08-17T12:12:12.523Z,23.44
2022-08-17T12:17:42.827Z,24.65
2022-08-17T12:20:16.366Z,25.86
2022-08-17T12:22:53.446Z,25.64
2022-08-17T12:25:33.121Z,25.31
2022-08-17T12:28:07.731Z,24.30
2022-08-17T12:30:38.959Z,24.61
2022-08-17T12:33:25.789Z,22.87
2022-08-17T12:36:03.925Z,23.39
2022-08-17T12:38:36.272Z,24.62
2022-08-17T12:41:23.051Z,23.86
2022-08-17T12:44:01.695Z,23.16
2022-08-17T12:46:35.843Z,22.09
2022-08-17T12:49:13.873Z,24.11
2022-08-17T12:51:45.710Z,25.18
2022-08-17T12:54:26.757Z,26.94
2022-08-17T12:56:57.135Z,25.18
2022-08-17T12:59:30.078Z,26.09
2022-08-17T13:02:01.924Z,25.05
2022-08-17T13:04:33.004Z,25.62
2022-08-17T13:07:02.887Z,24.71
2022-08-17T13:09:35.476Z,23.81
2022-08-17T13:12:11.027Z,25.71
2022-08-17T13:14:47.715Z,26.39
2022-08-17T13:17:27.591Z,25.62
2022-08-17T13:19:58.301Z,24.43
2022-08-17T13:22:30.605Z,24.57
2022-08-17T13:25:07.126Z,25.03
2022-08-17T13:27:38.328Z,25.06
2022-08-17T13:30:14.962Z,26.70
2022-08-17T13:32:47.294Z,25.32
2022-08-17T13:35:45.892Z,24.09
2022-08-17T13:38:40.575Z,24.15
2022-08-17T13:41:30.937Z,25.57
2022-08-17T13:44:00.847Z,25.37
2022-08-17T13:46:34.208Z,24.68
2022-08-17T13:49:07.286Z,25.44
2022-08-17T13:51:44.522Z,25.14
2022-08-17T13:54:25.765Z,24.61
2022-08-17T13:57:01.964Z,24.92
2022-08-17T13:59:55.214Z,25.57
2022-08-17T14:02:28.477Z,27.93
2022-08-17T14:05:00.604Z,27.93
2022-08-17T14:07:34.807Z,28.51
2022-08-17T14:10:10.746Z,27.79
2022-08-17T14:12:44.720Z,27.64
2022-08-17T14:15:20.571Z,29.00
2022-08-17T14:17:53.285Z,28.98
2022-08-17T14:20:24.638Z,29.56
2022-08-17T14:22:55.755Z,29.46
2022-08-17T14:25:28.740Z,28.65
2022-08-17T14:27:59.148Z,27.72
2022-08-17T14:30:30.016Z,28.11
2022-08-17T14:33:02.264Z,29.41
2022-08-17T14:35:32.249Z,29.03
2022-08-17T14:38:03.178Z,28.79
2022-08-17T14:40:34.762Z,30.01
2022-08-17T14:43:05.107Z,28.99
2022-08-17T14:45:35.001Z,29.24
2022-08-17T14:48:07.978Z,28.56
2022-08-17T14:50:40.989Z,28.16
2022-08-17T14:53:13.253Z,30.34
2022-08-17T14:55:45.812Z,30.69
2022-08-17T14:58:19.965Z,31.04
2022-08-17T15:00:51.000Z,29.59
2022-08-17T15:03:22.824Z,30.35
2022-08-17T15:05:52.797Z,30.55
2022-08-17T15:08:22.552Z,30.69
2022-08-17T15:10:54.391Z,30.03
2022-08-17T15:13:27.132Z,30.90
2022-08-17T15:15:59.305Z,30.46
2022-08-17T15:18:31.457Z,28.94
2022-08-17T15:21:03.897Z,29.47
2022-08-17T15:23:34.294Z,28.90
2022-08-17T15:26:04.309Z,29.17
2022-08-17T15:28:34.581Z,29.69
2022-08-17T15:31:06.662Z,29.28
2022-08-17T15:33:38.094Z,30.14
2022-08-17T15:36:09.361Z,30.17
2022-08-17T15:38:40.404Z,30.81
2022-08-17T15:41:15.219Z,31.28
2022-08-17T15:43:46.869Z,32.49
2022-08-17T15:46:18.909Z,32.20
2022-08-17T15:48:52.001Z,30.96
2022-08-17T15:51:24.969Z,29.58
2022-08-17T15:53:57.425Z,30.42
2022-08-17T15:56:29.281Z,30.33
2022-08-17T15:59:01.268Z,30.77
2022-08-17T16:02:16.285Z,29.72
2022-08-17T16:04:29.920Z,30.00
2022-08-17T16:07:01.181Z,29.58
2022-08-17T16:09:31.140Z,29.94
2022-08-17T16:12:10.694Z,30.08
2022-08-17T16:14:41.208Z,32.64
2022-08-17T16:17:38.747Z,32.85
2022-08-17T16:20:02.687Z,30.76
2022-08-17T16:22:34.761Z,29.96
2022-08-17T16:25:09.094Z,31.00
2022-08-17T16:27:39.375Z,31.74
2022-08-17T16:30:16.431Z,31.93
2022-08-17T16:32:48.447Z,31.75
2022-08-17T16:35:21.326Z,33.21
2022-08-17T16:37:53.125Z,32.99
2022-08-17T16:40:24.213Z,33.82
2022-08-17T16:42:55.250Z,33.74
2022-08-17T16:45:28.487Z,33.53
2022-08-17T16:48:01.587Z,34.32
2022-08-17T16:50:34.028Z,34.43
2022-08-17T16:53:06.634Z,34.60
2022-08-17T16:55:36.822Z,33.82
2022-08-17T16:58:08.890Z,34.19
2022-08-17T17:00:39.470Z,34.43
2022-08-17T17:03:19.223Z,34.43
2022-08-17T17:06:03.871Z,34.86
2022-08-17T17:08:44.556Z,34.90
2022-08-17T17:11:26.127Z,35.31
2022-08-17T17:13:59.696Z,35.56
2022-08-17T17:16:39.077Z,35.72
2022-08-17T17:19:12.845Z,35.48
2022-08-17T17:21:46.280Z,34.25
2022-08-17T17:24:22.239Z,35.03
2022-08-17T17:27:10.417Z,35.48
2022-08-17T17:29:52.767Z,34.96
2022-08-17T17:32:38.132Z,35.16
2022-08-17T17:35:17.125Z,35.17
2022-08-17T17:37:48.737Z,34.78
2022-08-17T17:40:23.169Z,35.77
2022-08-17T17:42:55.646Z,35.43
2022-08-17T17:45:31.399Z,36.11
2022-08-17T17:48:02.337Z,36.30
2022-08-17T17:50:39.151Z,35.56
2022-08-17T17:53:35.251Z,35.90
2022-08-17T17:56:44.449Z,35.45
2022-08-17T17:59:21.693Z,36.07
2022-08-17T18:02:03.046Z,36.44
2022-08-17T18:04:44.771Z,35.98
2022-08-17T18:07:24.403Z,37.02
2022-08-17T18:10:19.649Z,36.98
2022-08-17T18:13:09.941Z,37.36
2022-08-17T18:15:51.405Z,36.96
2022-08-17T18:18:38.020Z,37.29
2022-08-17T18:21:19.440Z,38.42
2022-08-17T18:23:55.707Z,37.72
2022-08-17T18:26:44.657Z,38.14
2022-08-17T18:29:24.501Z,38.21
2022-08-17T18:32:29.428Z,38.11
2022-08-17T18:35:04.711Z,38.38
2022-08-17T18:37:42.681Z,38.39
2022-08-17T18:40:29.474Z,38.34
2022-08-17T18:43:08.364Z,37.88
2022-08-17T18:45:42.307Z,37.07
2022-08-17T18:48:30.689Z,37.17
2022-08-17T18:51:26.480Z,37.13
2022-08-17T18:54:19.361Z,37.14
2022-08-17T18:56:54.726Z,37.22
2022-08-17T18:59:35.724Z,37.09
2022-08-17T19:02:43.321Z,36.77
2022-08-17T19:05:26.272Z,36.79
2022-08-17T19:08:16.689Z,36.88
2022-08-17T19:10:48.633Z,36.56
2022-08-17T19:13:24.437Z,37.07
2022-08-17T19:16:11.454Z,36.32
2022-08-17T19:18:49.439Z,36.50
2022-08-17T19:21:24.133Z,36.32
2022-08-17T19:24:01.650Z,37.38
2022-08-17T19:26:53.827Z,36.69
2022-08-17T19:29:31.893Z,36.58
2022-08-17T19:32:08.749Z,37.13
2022-08-17T19:34:44.599Z,37.15
2022-08-17T19:37:28.639Z,36.99
2022-08-17T19:40:03.338Z,37.35
2022-08-17T19:42:42.553Z,37.16
2022-08-17T19:45:23.951Z,37.29
2022-08-17T19:48:05.510Z,37.30
2022-08-17T19:50:44.925Z,38.01
2022-08-17T19:53:36.850Z,37.78
2022-08-17T19:56:26.235Z,37.71
2022-08-17T19:59:02.234Z,37.50
2022-08-17T20:01:39.224Z,37.39
2022-08-17T20:04:17.253Z,37.57
2022-08-17T20:06:50.332Z,37.74
2022-08-17T20:09:24.704Z,37.67
2022-08-17T20:12:07.170Z,37.95
2022-08-17T20:14:55.661Z,37.86
2022-08-17T20:17:31.926Z,38.15
2022-08-17T20:20:19.825Z,37.88
2022-08-17T20:22:59.860Z,37.81
2022-08-17T20:25:39.527Z,38.17
2022-08-17T20:28:22.924Z,37.99
2022-08-17T20:30:53.815Z,37.95
2022-08-17T20:33:27.252Z,38.20
2022-08-17T20:36:22.752Z,38.13
2022-08-17T20:38:55.704Z,38.04
2022-08-17T20:41:27.870Z,38.34
2022-08-17T20:44:06.533Z,38.19
2022-08-17T20:47:04.704Z,38.73
2022-08-17T20:49:48.559Z,38.65
2022-08-17T20:52:45.392Z,38.36
2022-08-17T20:55:53.306Z,39.12
2022-08-17T20:58:47.214Z,39.16
2022-08-17T21:01:24.458Z,39.21
2022-08-17T21:03:56.124Z,39.10
2022-08-17T21:06:26.610Z,39.39
2022-08-17T21:09:19.833Z,39.42
2022-08-17T21:12:04.303Z,39.92
2022-08-17T21:14:45.680Z,39.56
2022-08-17T21:17:41.910Z,39.73
2022-08-17T21:20:32.328Z,39.65
2022-08-17T21:23:25.749Z,39.71
2022-08-17T21:26:17.382Z,39.80
2022-08-17T21:29:03.602Z,39.91
2022-08-17T21:32:15.873Z,40.42
2022-08-17T21:35:24.189Z,40.66
2022-08-17T21:38:00.014Z,40.46
2022-08-17T21:40:33.218Z,40.53
2022-08-17T21:43:18.145Z,40.49
2022-08-17T21:45:57.797Z,40.48
2022-08-17T21:48:29.348Z,40.38
2022-08-17T21:51:04.733Z,40.12
2022-08-17T21:53:40.207Z,40.14
2022-08-17T21:56:13.185Z,40.18
2022-08-17T21:58:48.556Z,39.87
2022-08-17T22:01:25.337Z,39.84
2022-08-17T22:04:00.047Z,40.04
2022-08-17T22:06:34.217Z,40.29
2022-08-17T22:09:16.009Z,40.18
2022-08-17T22:11:52.673Z,40.46
2022-08-17T22:14:27.213Z,40.47
2022-08-17T22:17:20.672Z,40.61
2022-08-17T22:19:53.291Z,40.87
2022-08-17T22:22:59.971Z,40.46
2022-08-17T22:25:31.132Z,41.05
2022-08-17T22:28:04.074Z,41.24
2022-08-17T22:30:38.368Z,41.38
2022-08-17T22:33:32.050Z,41.44
2022-08-17T22:36:29.107Z,41.86
2022-08-17T22:39:01.467Z,41.69
2022-08-17T22:41:40.503Z,42.00
2022-08-17T22:44:18.176Z,41.87
2022-08-17T22:47:04.535Z,42.23
2022-08-17T22:49:38.665Z,42.28
2022-08-17T22:52:33.098Z,42.31
2022-08-17T22:55:25.150Z,42.21
2022-08-17T22:58:14.657Z,42.43
2022-08-17T23:00:47.425Z,42.38
2022-08-17T23:03:20.752Z,42.53
2022-08-17T23:06:03.439Z,42.37
2022-08-17T23:08:35.729Z,42.54
2022-08-17T23:11:07.670Z,42.59
2022-08-17T23:13:38.433Z,42.66
2022-08-17T23:16:08.930Z,42.36
2022-08-17T23:18:40.225Z,42.63
2022-08-17T23:21:10.193Z,42.44
2022-08-17T23:23:46.320Z,42.45
2022-08-17T23:26:16.857Z,42.46
2022-08-17T23:28:47.101Z,42.30
2022-08-17T23:31:19.641Z,42.35
2022-08-17T23:33:59.252Z,42.66
2022-08-17T23:36:29.493Z,42.31
2022-08-17T23:38:59.852Z,42.75
2022-08-17T23:41:34.135Z,42.76
2022-08-17T23:44:07.132Z,42.55
2022-08-17T23:46:37.244Z,42.79
2022-08-17T23:49:08.832Z,42.78
2022-08-17T23:51:42.547Z,43.08
2022-08-17T23:54:16.995Z,42.98
2022-08-17T23:56:47.102Z,42.89
2022-08-17T23:59:18.848Z,43.00
